sensor_id;sensor_type;location;lat;lon;timestamp;P1;durP1;ratioP1;P2;durP2;ratioP2
9364;SDS011;4722;49.340;9.800;2023-03-12T00:01:25;5.30;;;1.88;;
9364;SDS011;4722;49.340;9.800;2023-03-12T00:03:51;4.53;;;2.00;;
9364;SDS011;4722;49.340;9.800;2023-03-12T00:06:19;5.55;;;1.92;;
9364;SDS011;4722;49.340;9.800;2023-03-12T00:08:45;5.68;;;1.52;;
9364;SDS011;4722;49.340;9.800;2023-03-12T00:11:12;4.13;;;1.48;;
9364;SDS011;4722;49.340;9.800;2023-03-12T00:13:38;9.63;;;2.40;;
9364;SDS011;4722;49.340;9.800;2023-03-12T00:16:11;5.68;;;1.92;;
9364;SDS011;4722;49.340;9.800;2023-03-12T00:18:39;4.75;;;2.00;;
9364;SDS011;4722;49.340;9.800;2023-03-12T00:21:05;5.07;;;1.50;;
9364;SDS011;4722;49.340;9.800;2023-03-12T00:23:32;7.90;;;1.70;;
9364;SDS011;4722;49.340;9.800;2023-03-12T00:25:59;5.70;;;2.07;;
9364;SDS011;4722;49.340;9.800;2023-03-12T00:28:25;3.50;;;1.88;;
9364;SDS011;4722;49.340;9.800;2023-03-12T00:30:51;5.00;;;1.42;;
9364;SDS011;4722;49.340;9.800;2023-03-12T00:33:17;4.70;;;1.67;;
9364;SDS011;4722;49.340;9.800;2023-03-12T00:35:43;3.53;;;1.90;;
9364;SDS011;4722;49.340;9.800;2023-03-12T00:38:10;2.55;;;1.45;;
9364;SDS011;4722;49.340;9.800;2023-03-12T00:40:36;5.13;;;1.63;;
9364;SDS011;4722;49.340;9.800;2023-03-12T00:43:03;6.88;;;1.92;;
9364;SDS011;4722;49.340;9.800;2023-03-12T00:45:29;3.53;;;1.70;;
9364;SDS011;4722;49.340;9.800;2023-03-12T00:47:55;3.38;;;1.50;;
9364;SDS011;4722;49.340;9.800;2023-03-12T00:50:21;2.22;;;1.35;;
9364;SDS011;4722;49.340;9.800;2023-03-12T00:52:47;3.88;;;1.83;;
9364;SDS011;4722;49.340;9.800;2023-03-12T00:55:13;4.53;;;1.75;;
9364;SDS011;4722;49.340;9.800;2023-03-12T00:57:39;2.75;;;1.17;;
9364;SDS011;4722;49.340;9.800;2023-03-12T01:00:05;2.83;;;1.60;;
9364;SDS011;4722;49.340;9.800;2023-03-12T01:02:35;5.53;;;2.30;;
9364;SDS011;4722;49.340;9.800;2023-03-12T01:05:04;4.97;;;1.92;;
9364;SDS011;4722;49.340;9.800;2023-03-12T01:07:31;8.63;;;1.65;;
9364;SDS011;4722;49.340;9.800;2023-03-12T01:09:57;3.03;;;1.65;;
9364;SDS011;4722;49.340;9.800;2023-03-12T01:12:23;4.10;;;1.42;;
9364;SDS011;4722;49.340;9.800;2023-03-12T01:14:49;2.70;;;1.63;;
9364;SDS011;4722;49.340;9.800;2023-03-12T01:17:15;2.65;;;1.52;;
9364;SDS011;4722;49.340;9.800;2023-03-12T01:19:41;3.55;;;1.40;;
9364;SDS011;4722;49.340;9.800;2023-03-12T01:22:07;4.75;;;1.83;;
9364;SDS011;4722;49.340;9.800;2023-03-12T01:24:33;3.78;;;1.55;;
9364;SDS011;4722;49.340;9.800;2023-03-12T01:26:59;4.53;;;1.73;;
9364;SDS011;4722;49.340;9.800;2023-03-12T01:29:25;4.28;;;1.65;;
9364;SDS011;4722;49.340;9.800;2023-03-12T01:31:51;6.15;;;1.90;;
9364;SDS011;4722;49.340;9.800;2023-03-12T01:34:17;3.60;;;1.73;;
9364;SDS011;4722;49.340;9.800;2023-03-12T01:36:43;5.10;;;1.90;;
9364;SDS011;4722;49.340;9.800;2023-03-12T01:39:11;4.53;;;1.92;;
9364;SDS011;4722;49.340;9.800;2023-03-12T01:41:37;6.30;;;1.70;;
9364;SDS011;4722;49.340;9.800;2023-03-12T01:44:04;3.95;;;1.63;;
9364;SDS011;4722;49.340;9.800;2023-03-12T01:46:34;4.05;;;1.80;;
9364;SDS011;4722;49.340;9.800;2023-03-12T01:51:29;2.90;;;1.90;;
9364;SDS011;4722;49.340;9.800;2023-03-12T01:53:57;4.10;;;1.65;;
9364;SDS011;4722;49.340;9.800;2023-03-12T01:56:26;3.67;;;2.10;;
9364;SDS011;4722;49.340;9.800;2023-03-12T01:58:54;7.88;;;2.15;;
9364;SDS011;4722;49.340;9.800;2023-03-12T02:01:22;4.68;;;1.85;;
9364;SDS011;4722;49.340;9.800;2023-03-12T02:03:49;3.70;;;1.63;;
9364;SDS011;4722;49.340;9.800;2023-03-12T02:06:16;4.13;;;1.85;;
9364;SDS011;4722;49.340;9.800;2023-03-12T02:08:44;4.22;;;2.05;;
9364;SDS011;4722;49.340;9.800;2023-03-12T02:11:12;5.40;;;2.22;;
9364;SDS011;4722;49.340;9.800;2023-03-12T02:13:38;3.70;;;2.20;;
9364;SDS011;4722;49.340;9.800;2023-03-12T02:16:04;5.97;;;2.17;;
9364;SDS011;4722;49.340;9.800;2023-03-12T02:18:31;4.45;;;1.85;;
9364;SDS011;4722;49.340;9.800;2023-03-12T02:23:51;4.32;;;2.35;;
9364;SDS011;4722;49.340;9.800;2023-03-12T02:26:20;3.58;;;1.98;;
9364;SDS011;4722;49.340;9.800;2023-03-12T02:28:46;3.80;;;2.17;;
9364;SDS011;4722;49.340;9.800;2023-03-12T02:31:13;3.17;;;2.10;;
9364;SDS011;4722;49.340;9.800;2023-03-12T02:33:40;5.68;;;2.80;;
9364;SDS011;4722;49.340;9.800;2023-03-12T02:36:06;5.40;;;2.13;;
9364;SDS011;4722;49.340;9.800;2023-03-12T02:38:49;3.63;;;1.92;;
9364;SDS011;4722;49.340;9.800;2023-03-12T02:41:22;4.70;;;2.00;;
9364;SDS011;4722;49.340;9.800;2023-03-12T02:43:51;4.33;;;2.10;;
9364;SDS011;4722;49.340;9.800;2023-03-12T02:46:19;4.68;;;2.25;;
9364;SDS011;4722;49.340;9.800;2023-03-12T02:48:45;3.50;;;1.83;;
9364;SDS011;4722;49.340;9.800;2023-03-12T02:51:11;5.27;;;1.90;;
9364;SDS011;4722;49.340;9.800;2023-03-12T02:53:37;5.30;;;1.73;;
9364;SDS011;4722;49.340;9.800;2023-03-12T02:56:04;2.78;;;1.58;;
9364;SDS011;4722;49.340;9.800;2023-03-12T02:58:30;4.03;;;1.88;;
9364;SDS011;4722;49.340;9.800;2023-03-12T03:00:56;4.75;;;2.30;;
9364;SDS011;4722;49.340;9.800;2023-03-12T03:03:22;5.40;;;2.60;;
9364;SDS011;4722;49.340;9.800;2023-03-12T03:05:48;3.72;;;2.30;;
9364;SDS011;4722;49.340;9.800;2023-03-12T03:08:14;5.28;;;2.30;;
9364;SDS011;4722;49.340;9.800;2023-03-12T03:10:40;4.03;;;1.88;;
9364;SDS011;4722;49.340;9.800;2023-03-12T03:13:06;6.00;;;2.10;;
9364;SDS011;4722;49.340;9.800;2023-03-12T03:15:32;6.90;;;2.67;;
9364;SDS011;4722;49.340;9.800;2023-03-12T03:17:58;7.55;;;2.28;;
9364;SDS011;4722;49.340;9.800;2023-03-12T03:20:27;7.63;;;2.33;;
9364;SDS011;4722;49.340;9.800;2023-03-12T03:22:53;6.80;;;2.25;;
9364;SDS011;4722;49.340;9.800;2023-03-12T03:25:19;5.50;;;2.17;;
9364;SDS011;4722;49.340;9.800;2023-03-12T03:27:47;5.03;;;1.80;;
9364;SDS011;4722;49.340;9.800;2023-03-12T03:30:13;7.15;;;2.63;;
9364;SDS011;4722;49.340;9.800;2023-03-12T03:32:40;6.03;;;2.58;;
9364;SDS011;4722;49.340;9.800;2023-03-12T03:35:06;4.93;;;1.80;;
9364;SDS011;4722;49.340;9.800;2023-03-12T03:37:32;4.13;;;2.20;;
9364;SDS011;4722;49.340;9.800;2023-03-12T03:39:58;3.50;;;2.10;;
9364;SDS011;4722;49.340;9.800;2023-03-12T03:42:24;4.28;;;2.38;;
9364;SDS011;4722;49.340;9.800;2023-03-12T03:44:50;5.55;;;2.45;;
9364;SDS011;4722;49.340;9.800;2023-03-12T03:47:16;5.35;;;2.55;;
9364;SDS011;4722;49.340;9.800;2023-03-12T03:49:42;7.05;;;2.10;;
9364;SDS011;4722;49.340;9.800;2023-03-12T03:52:09;4.95;;;2.05;;
9364;SDS011;4722;49.340;9.800;2023-03-12T03:54:35;5.50;;;1.73;;
9364;SDS011;4722;49.340;9.800;2023-03-12T03:57:01;4.95;;;2.70;;
9364;SDS011;4722;49.340;9.800;2023-03-12T03:59:27;5.07;;;2.20;;
9364;SDS011;4722;49.340;9.800;2023-03-12T04:01:53;4.63;;;2.10;;
9364;SDS011;4722;49.340;9.800;2023-03-12T04:04:19;8.13;;;3.08;;
9364;SDS011;4722;49.340;9.800;2023-03-12T04:06:45;4.43;;;2.60;;
9364;SDS011;4722;49.340;9.800;2023-03-12T04:09:11;5.38;;;2.35;;
9364;SDS011;4722;49.340;9.800;2023-03-12T04:11:37;3.78;;;2.13;;
9364;SDS011;4722;49.340;9.800;2023-03-12T04:14:03;5.57;;;2.55;;
9364;SDS011;4722;49.340;9.800;2023-03-12T04:16:29;4.10;;;2.45;;
9364;SDS011;4722;49.340;9.800;2023-03-12T04:18:54;3.93;;;2.50;;
9364;SDS011;4722;49.340;9.800;2023-03-12T04:21:20;5.68;;;2.28;;
9364;SDS011;4722;49.340;9.800;2023-03-12T04:23:46;4.10;;;2.25;;
9364;SDS011;4722;49.340;9.800;2023-03-12T04:26:12;5.47;;;2.40;;
9364;SDS011;4722;49.340;9.800;2023-03-12T04:28:38;6.00;;;2.57;;
9364;SDS011;4722;49.340;9.800;2023-03-12T04:31:05;3.90;;;2.30;;
9364;SDS011;4722;49.340;9.800;2023-03-12T04:33:33;4.22;;;2.40;;
9364;SDS011;4722;49.340;9.800;2023-03-12T04:36:00;4.30;;;2.17;;
9364;SDS011;4722;49.340;9.800;2023-03-12T04:38:26;6.00;;;2.42;;
9364;SDS011;4722;49.340;9.800;2023-03-12T04:40:56;5.00;;;2.70;;
9364;SDS011;4722;49.340;9.800;2023-03-12T04:43:22;4.95;;;2.85;;
9364;SDS011;4722;49.340;9.800;2023-03-12T04:45:48;6.28;;;2.90;;
9364;SDS011;4722;49.340;9.800;2023-03-12T04:48:14;4.03;;;2.33;;
9364;SDS011;4722;49.340;9.800;2023-03-12T04:50:40;5.30;;;2.45;;
9364;SDS011;4722;49.340;9.800;2023-03-12T04:53:07;4.47;;;2.53;;
9364;SDS011;4722;49.340;9.800;2023-03-12T04:55:33;6.75;;;2.50;;
9364;SDS011;4722;49.340;9.800;2023-03-12T04:57:59;3.90;;;2.20;;
9364;SDS011;4722;49.340;9.800;2023-03-12T05:00:25;6.13;;;2.73;;
9364;SDS011;4722;49.340;9.800;2023-03-12T05:02:51;6.53;;;2.73;;
9364;SDS011;4722;49.340;9.800;2023-03-12T05:05:17;7.13;;;2.90;;
9364;SDS011;4722;49.340;9.800;2023-03-12T05:07:43;6.07;;;2.72;;
9364;SDS011;4722;49.340;9.800;2023-03-12T05:10:09;8.67;;;3.00;;
9364;SDS011;4722;49.340;9.800;2023-03-12T05:12:35;11.65;;;3.03;;
9364;SDS011;4722;49.340;9.800;2023-03-12T05:15:01;5.47;;;2.78;;
9364;SDS011;4722;49.340;9.800;2023-03-12T05:17:27;4.60;;;2.65;;
9364;SDS011;4722;49.340;9.800;2023-03-12T05:19:53;7.47;;;2.47;;
9364;SDS011;4722;49.340;9.800;2023-03-12T05:22:19;5.32;;;2.95;;
9364;SDS011;4722;49.340;9.800;2023-03-12T05:24:45;4.68;;;2.67;;
9364;SDS011;4722;49.340;9.800;2023-03-12T05:27:11;6.22;;;2.88;;
9364;SDS011;4722;49.340;9.800;2023-03-12T05:29:37;6.18;;;2.95;;
9364;SDS011;4722;49.340;9.800;2023-03-12T05:32:03;7.55;;;3.78;;
9364;SDS011;4722;49.340;9.800;2023-03-12T05:34:31;6.45;;;2.67;;
9364;SDS011;4722;49.340;9.800;2023-03-12T05:36:57;6.28;;;3.05;;
9364;SDS011;4722;49.340;9.800;2023-03-12T05:39:24;3.95;;;2.63;;
9364;SDS011;4722;49.340;9.800;2023-03-12T05:41:50;6.97;;;3.00;;
9364;SDS011;4722;49.340;9.800;2023-03-12T05:44:20;6.20;;;2.47;;
9364;SDS011;4722;49.340;9.800;2023-03-12T05:46:46;8.73;;;3.17;;
9364;SDS011;4722;49.340;9.800;2023-03-12T05:49:12;8.53;;;3.23;;
9364;SDS011;4722;49.340;9.800;2023-03-12T05:51:38;4.63;;;2.47;;
9364;SDS011;4722;49.340;9.800;2023-03-12T05:54:04;4.37;;;3.10;;
9364;SDS011;4722;49.340;9.800;2023-03-12T05:56:30;8.03;;;2.90;;
9364;SDS011;4722;49.340;9.800;2023-03-12T05:58:56;6.57;;;2.87;;
9364;SDS011;4722;49.340;9.800;2023-03-12T06:01:24;4.93;;;3.10;;
9364;SDS011;4722;49.340;9.800;2023-03-12T06:03:51;6.57;;;3.20;;
9364;SDS011;4722;49.340;9.800;2023-03-12T06:06:17;6.30;;;3.17;;
9364;SDS011;4722;49.340;9.800;2023-03-12T06:08:43;6.35;;;3.08;;
9364;SDS011;4722;49.340;9.800;2023-03-12T06:11:10;4.80;;;3.30;;
9364;SDS011;4722;49.340;9.800;2023-03-12T06:13:36;4.95;;;2.53;;
9364;SDS011;4722;49.340;9.800;2023-03-12T06:16:10;8.33;;;2.93;;
9364;SDS011;4722;49.340;9.800;2023-03-12T06:18:36;5.60;;;3.13;;
9364;SDS011;4722;49.340;9.800;2023-03-12T06:21:21;5.18;;;2.40;;
9364;SDS011;4722;49.340;9.800;2023-03-12T06:23:48;6.53;;;3.10;;
9364;SDS011;4722;49.340;9.800;2023-03-12T06:26:14;7.05;;;3.03;;
9364;SDS011;4722;49.340;9.800;2023-03-12T06:28:41;6.15;;;3.35;;
9364;SDS011;4722;49.340;9.800;2023-03-12T06:31:07;8.02;;;3.17;;
9364;SDS011;4722;49.340;9.800;2023-03-12T06:33:33;7.18;;;3.38;;
9364;SDS011;4722;49.340;9.800;2023-03-12T06:36:00;7.20;;;3.00;;
9364;SDS011;4722;49.340;9.800;2023-03-12T06:38:27;5.72;;;2.78;;
9364;SDS011;4722;49.340;9.800;2023-03-12T06:40:54;5.32;;;2.88;;
9364;SDS011;4722;49.340;9.800;2023-03-12T06:43:20;6.30;;;2.53;;
9364;SDS011;4722;49.340;9.800;2023-03-12T06:45:46;7.60;;;2.55;;
9364;SDS011;4722;49.340;9.800;2023-03-12T06:48:12;4.18;;;2.00;;
9364;SDS011;4722;49.340;9.800;2023-03-12T06:50:37;11.18;;;2.95;;
9364;SDS011;4722;49.340;9.800;2023-03-12T06:53:03;6.47;;;3.17;;
9364;SDS011;4722;49.340;9.800;2023-03-12T06:55:29;5.50;;;2.97;;
9364;SDS011;4722;49.340;9.800;2023-03-12T06:57:55;6.83;;;2.37;;
9364;SDS011;4722;49.340;9.800;2023-03-12T07:00:21;7.03;;;2.92;;
9364;SDS011;4722;49.340;9.800;2023-03-12T07:02:47;10.73;;;4.78;;
9364;SDS011;4722;49.340;9.800;2023-03-12T07:05:13;30.60;;;13.57;;
9364;SDS011;4722;49.340;9.800;2023-03-12T07:07:39;25.13;;;10.75;;
9364;SDS011;4722;49.340;9.800;2023-03-12T07:10:05;15.13;;;7.68;;
9364;SDS011;4722;49.340;9.800;2023-03-12T07:12:31;10.45;;;4.82;;
9364;SDS011;4722;49.340;9.800;2023-03-12T07:14:57;9.77;;;3.33;;
9364;SDS011;4722;49.340;9.800;2023-03-12T07:17:23;7.47;;;2.75;;
9364;SDS011;4722;49.340;9.800;2023-03-12T07:19:50;6.25;;;3.13;;
9364;SDS011;4722;49.340;9.800;2023-03-12T07:22:16;5.82;;;2.22;;
9364;SDS011;4722;49.340;9.800;2023-03-12T07:24:42;4.40;;;2.47;;
9364;SDS011;4722;49.340;9.800;2023-03-12T07:27:08;3.30;;;2.27;;
9364;SDS011;4722;49.340;9.800;2023-03-12T07:29:34;8.35;;;2.35;;
9364;SDS011;4722;49.340;9.800;2023-03-12T07:32:00;7.32;;;1.73;;
9364;SDS011;4722;49.340;9.800;2023-03-12T07:34:26;2.28;;;1.60;;
9364;SDS011;4722;49.340;9.800;2023-03-12T07:36:52;6.15;;;1.63;;
9364;SDS011;4722;49.340;9.800;2023-03-12T07:39:18;3.90;;;1.50;;
9364;SDS011;4722;49.340;9.800;2023-03-12T07:41:45;4.53;;;2.03;;
9364;SDS011;4722;49.340;9.800;2023-03-12T07:44:11;3.95;;;2.33;;
9364;SDS011;4722;49.340;9.800;2023-03-12T07:46:36;5.55;;;2.78;;
9364;SDS011;4722;49.340;9.800;2023-03-12T07:49:02;7.55;;;2.38;;
9364;SDS011;4722;49.340;9.800;2023-03-12T07:51:29;12.45;;;5.72;;
9364;SDS011;4722;49.340;9.800;2023-03-12T07:53:55;12.07;;;5.45;;
9364;SDS011;4722;49.340;9.800;2023-03-12T07:56:21;21.50;;;6.88;;
9364;SDS011;4722;49.340;9.800;2023-03-12T07:58:47;7.55;;;4.70;;
9364;SDS011;4722;49.340;9.800;2023-03-12T08:01:13;7.22;;;3.60;;
9364;SDS011;4722;49.340;9.800;2023-03-12T08:03:39;6.53;;;2.53;;
9364;SDS011;4722;49.340;9.800;2023-03-12T08:06:05;4.43;;;1.52;;
9364;SDS011;4722;49.340;9.800;2023-03-12T08:08:31;4.07;;;2.47;;
9364;SDS011;4722;49.340;9.800;2023-03-12T08:10:58;2.17;;;1.35;;
9364;SDS011;4722;49.340;9.800;2023-03-12T08:13:24;2.45;;;1.27;;
9364;SDS011;4722;49.340;9.800;2023-03-12T08:15:51;3.05;;;1.40;;
9364;SDS011;4722;49.340;9.800;2023-03-12T08:18:17;2.83;;;1.48;;
9364;SDS011;4722;49.340;9.800;2023-03-12T08:20:43;2.88;;;1.25;;
9364;SDS011;4722;49.340;9.800;2023-03-12T08:23:10;4.60;;;1.40;;
9364;SDS011;4722;49.340;9.800;2023-03-12T08:25:36;1.95;;;1.30;;
9364;SDS011;4722;49.340;9.800;2023-03-12T08:28:02;5.60;;;2.75;;
9364;SDS011;4722;49.340;9.800;2023-03-12T08:30:29;2.85;;;1.42;;
9364;SDS011;4722;49.340;9.800;2023-03-12T08:32:55;3.88;;;1.60;;
9364;SDS011;4722;49.340;9.800;2023-03-12T08:35:21;4.55;;;1.52;;
9364;SDS011;4722;49.340;9.800;2023-03-12T08:37:47;6.20;;;1.48;;
9364;SDS011;4722;49.340;9.800;2023-03-12T08:40:13;4.07;;;2.10;;
9364;SDS011;4722;49.340;9.800;2023-03-12T08:42:40;3.20;;;1.58;;
9364;SDS011;4722;49.340;9.800;2023-03-12T08:45:06;7.35;;;1.88;;
9364;SDS011;4722;49.340;9.800;2023-03-12T08:47:33;8.10;;;2.00;;
9364;SDS011;4722;49.340;9.800;2023-03-12T08:49:59;3.03;;;1.48;;
9364;SDS011;4722;49.340;9.800;2023-03-12T08:52:25;3.88;;;1.58;;
9364;SDS011;4722;49.340;9.800;2023-03-12T08:54:51;3.30;;;1.65;;
9364;SDS011;4722;49.340;9.800;2023-03-12T08:57:17;6.45;;;1.92;;
9364;SDS011;4722;49.340;9.800;2023-03-12T08:59:43;2.05;;;1.13;;
9364;SDS011;4722;49.340;9.800;2023-03-12T09:02:12;4.13;;;1.80;;
9364;SDS011;4722;49.340;9.800;2023-03-12T09:04:38;2.78;;;2.05;;
9364;SDS011;4722;49.340;9.800;2023-03-12T09:07:04;5.68;;;1.45;;
9364;SDS011;4722;49.340;9.800;2023-03-12T09:09:30;4.07;;;1.63;;
9364;SDS011;4722;49.340;9.800;2023-03-12T09:11:56;4.53;;;1.73;;
9364;SDS011;4722;49.340;9.800;2023-03-12T09:14:22;3.67;;;1.67;;
9364;SDS011;4722;49.340;9.800;2023-03-12T09:16:48;3.60;;;1.20;;
9364;SDS011;4722;49.340;9.800;2023-03-12T09:19:14;3.15;;;1.70;;
9364;SDS011;4722;49.340;9.800;2023-03-12T09:21:40;4.30;;;2.38;;
9364;SDS011;4722;49.340;9.800;2023-03-12T09:24:06;6.68;;;2.22;;
9364;SDS011;4722;49.340;9.800;2023-03-12T09:26:32;10.55;;;3.35;;
9364;SDS011;4722;49.340;9.800;2023-03-12T09:28:58;5.55;;;2.55;;
9364;SDS011;4722;49.340;9.800;2023-03-12T09:31:24;3.53;;;1.52;;
9364;SDS011;4722;49.340;9.800;2023-03-12T09:33:51;6.70;;;2.42;;
9364;SDS011;4722;49.340;9.800;2023-03-12T09:36:17;2.45;;;1.77;;
9364;SDS011;4722;49.340;9.800;2023-03-12T09:38:43;3.20;;;1.85;;
9364;SDS011;4722;49.340;9.800;2023-03-12T09:41:19;2.30;;;1.20;;
9364;SDS011;4722;49.340;9.800;2023-03-12T09:44:09;2.42;;;1.42;;
9364;SDS011;4722;49.340;9.800;2023-03-12T09:46:54;3.83;;;1.73;;
9364;SDS011;4722;49.340;9.800;2023-03-12T09:49:30;8.40;;;2.53;;
9364;SDS011;4722;49.340;9.800;2023-03-12T09:51:57;4.55;;;1.70;;
9364;SDS011;4722;49.340;9.800;2023-03-12T09:54:49;4.82;;;1.85;;
9364;SDS011;4722;49.340;9.800;2023-03-12T09:57:13;6.55;;;1.70;;
9364;SDS011;4722;49.340;9.800;2023-03-12T09:59:41;5.57;;;1.92;;
9364;SDS011;4722;49.340;9.800;2023-03-12T10:04:57;2.80;;;1.25;;
9364;SDS011;4722;49.340;9.800;2023-03-12T10:07:35;6.22;;;1.63;;
9364;SDS011;4722;49.340;9.800;2023-03-12T10:15:56;5.65;;;1.17;;
9364;SDS011;4722;49.340;9.800;2023-03-12T10:20:45;5.60;;;1.67;;
9364;SDS011;4722;49.340;9.800;2023-03-12T10:23:13;4.38;;;1.48;;
9364;SDS011;4722;49.340;9.800;2023-03-12T10:28:28;7.78;;;1.55;;
9364;SDS011;4722;49.340;9.800;2023-03-12T10:30:56;6.22;;;1.70;;
9364;SDS011;4722;49.340;9.800;2023-03-12T10:33:28;3.28;;;1.38;;
9364;SDS011;4722;49.340;9.800;2023-03-12T10:35:59;3.80;;;1.48;;
9364;SDS011;4722;49.340;9.800;2023-03-12T10:38:28;1.83;;;1.05;;
9364;SDS011;4722;49.340;9.800;2023-03-12T10:40:54;3.33;;;1.77;;
9364;SDS011;4722;49.340;9.800;2023-03-12T10:43:20;2.67;;;1.30;;
9364;SDS011;4722;49.340;9.800;2023-03-12T10:45:58;4.22;;;1.88;;
9364;SDS011;4722;49.340;9.800;2023-03-12T10:48:25;3.30;;;1.70;;
9364;SDS011;4722;49.340;9.800;2023-03-12T10:51:05;4.00;;;1.55;;
9364;SDS011;4722;49.340;9.800;2023-03-12T10:53:32;3.00;;;1.30;;
9364;SDS011;4722;49.340;9.800;2023-03-12T10:56:04;3.35;;;1.80;;
9364;SDS011;4722;49.340;9.800;2023-03-12T10:58:31;3.35;;;1.70;;
9364;SDS011;4722;49.340;9.800;2023-03-12T11:00:59;2.05;;;1.27;;
9364;SDS011;4722;49.340;9.800;2023-03-12T11:03:25;5.38;;;1.65;;
9364;SDS011;4722;49.340;9.800;2023-03-12T11:05:53;5.90;;;2.03;;
9364;SDS011;4722;49.340;9.800;2023-03-12T11:10:45;3.38;;;2.03;;
9364;SDS011;4722;49.340;9.800;2023-03-12T11:13:21;2.30;;;1.52;;
9364;SDS011;4722;49.340;9.800;2023-03-12T11:15:48;4.28;;;1.83;;
9364;SDS011;4722;49.340;9.800;2023-03-12T11:20:44;2.92;;;1.77;;
9364;SDS011;4722;49.340;9.800;2023-03-12T11:23:14;3.65;;;1.92;;
9364;SDS011;4722;49.340;9.800;2023-03-12T11:25:41;4.05;;;2.08;;
9364;SDS011;4722;49.340;9.800;2023-03-12T11:28:09;4.10;;;1.63;;
9364;SDS011;4722;49.340;9.800;2023-03-12T11:30:38;9.57;;;2.25;;
9364;SDS011;4722;49.340;9.800;2023-03-12T11:33:04;5.50;;;2.72;;
9364;SDS011;4722;49.340;9.800;2023-03-12T11:35:38;7.55;;;2.00;;
9364;SDS011;4722;49.340;9.800;2023-03-12T11:38:11;8.38;;;2.42;;
9364;SDS011;4722;49.340;9.800;2023-03-12T11:40:50;2.63;;;1.63;;
9364;SDS011;4722;49.340;9.800;2023-03-12T11:56:35;4.78;;;2.15;;
9364;SDS011;4722;49.340;9.800;2023-03-12T11:59:07;7.32;;;1.77;;
9364;SDS011;4722;49.340;9.800;2023-03-12T12:07:17;3.22;;;1.80;;
9364;SDS011;4722;49.340;9.800;2023-03-12T12:10:01;2.65;;;1.42;;
9364;SDS011;4722;49.340;9.800;2023-03-12T12:17:46;8.27;;;2.42;;
9364;SDS011;4722;49.340;9.800;2023-03-12T12:30:35;4.50;;;2.97;;
9364;SDS011;4722;49.340;9.800;2023-03-12T12:35:34;4.70;;;2.50;;
9364;SDS011;4722;49.340;9.800;2023-03-12T12:38:04;4.47;;;2.30;;
9364;SDS011;4722;49.340;9.800;2023-03-12T12:40:36;3.85;;;2.33;;
9364;SDS011;4722;49.340;9.800;2023-03-12T12:45:48;5.70;;;3.00;;
9364;SDS011;4722;49.340;9.800;2023-03-12T12:48:17;7.25;;;3.00;;
9364;SDS011;4722;49.340;9.800;2023-03-12T12:50:43;6.22;;;3.70;;
9364;SDS011;4722;49.340;9.800;2023-03-12T12:53:18;9.52;;;3.70;;
9364;SDS011;4722;49.340;9.800;2023-03-12T12:58:31;7.50;;;3.53;;
9364;SDS011;4722;49.340;9.800;2023-03-12T13:03:25;6.20;;;3.42;;
9364;SDS011;4722;49.340;9.800;2023-03-12T13:05:59;8.90;;;3.72;;
9364;SDS011;4722;49.340;9.800;2023-03-12T13:08:31;6.10;;;3.25;;
9364;SDS011;4722;49.340;9.800;2023-03-12T13:10:58;7.35;;;4.05;;
9364;SDS011;4722;49.340;9.800;2023-03-12T13:13:28;6.82;;;3.80;;
9364;SDS011;4722;49.340;9.800;2023-03-12T13:18:38;7.28;;;4.10;;
9364;SDS011;4722;49.340;9.800;2023-03-12T13:21:07;5.57;;;3.30;;
9364;SDS011;4722;49.340;9.800;2023-03-12T13:23:42;8.40;;;3.25;;
9364;SDS011;4722;49.340;9.800;2023-03-12T13:31:49;8.70;;;4.82;;
9364;SDS011;4722;49.340;9.800;2023-03-12T13:36:46;8.73;;;4.18;;
9364;SDS011;4722;49.340;9.800;2023-03-12T13:41:45;9.30;;;3.53;;
9364;SDS011;4722;49.340;9.800;2023-03-12T13:46:47;12.02;;;4.13;;
9364;SDS011;4722;49.340;9.800;2023-03-12T13:49:14;8.90;;;2.60;;
9364;SDS011;4722;49.340;9.800;2023-03-12T13:51:45;5.43;;;3.03;;
9364;SDS011;4722;49.340;9.800;2023-03-12T13:54:14;5.80;;;3.35;;
9364;SDS011;4722;49.340;9.800;2023-03-12T13:56:43;7.07;;;2.97;;
9364;SDS011;4722;49.340;9.800;2023-03-12T13:59:14;4.03;;;2.53;;
9364;SDS011;4722;49.340;9.800;2023-03-12T14:01:44;5.07;;;2.92;;
9364;SDS011;4722;49.340;9.800;2023-03-12T14:04:19;7.82;;;3.13;;
9364;SDS011;4722;49.340;9.800;2023-03-12T14:06:57;5.95;;;3.40;;
9364;SDS011;4722;49.340;9.800;2023-03-12T14:14:31;12.73;;;4.40;;
9364;SDS011;4722;49.340;9.800;2023-03-12T14:17:09;5.57;;;3.35;;
9364;SDS011;4722;49.340;9.800;2023-03-12T14:19:37;6.25;;;2.92;;
9364;SDS011;4722;49.340;9.800;2023-03-12T14:22:04;7.88;;;3.85;;
9364;SDS011;4722;49.340;9.800;2023-03-12T14:24:36;8.05;;;4.45;;
9364;SDS011;4722;49.340;9.800;2023-03-12T14:27:03;5.00;;;3.25;;
9364;SDS011;4722;49.340;9.800;2023-03-12T14:29:32;5.10;;;3.53;;
9364;SDS011;4722;49.340;9.800;2023-03-12T14:32:01;10.18;;;3.25;;
9364;SDS011;4722;49.340;9.800;2023-03-12T14:34:30;6.50;;;2.60;;
9364;SDS011;4722;49.340;9.800;2023-03-12T14:37:01;5.47;;;3.65;;
9364;SDS011;4722;49.340;9.800;2023-03-12T14:39:34;10.43;;;4.72;;
9364;SDS011;4722;49.340;9.800;2023-03-12T14:42:01;14.32;;;3.72;;
9364;SDS011;4722;49.340;9.800;2023-03-12T14:44:29;8.85;;;3.15;;
9364;SDS011;4722;49.340;9.800;2023-03-12T14:49:21;4.10;;;2.58;;
9364;SDS011;4722;49.340;9.800;2023-03-12T14:51:47;5.85;;;3.10;;
9364;SDS011;4722;49.340;9.800;2023-03-12T14:54:14;5.88;;;2.92;;
9364;SDS011;4722;49.340;9.800;2023-03-12T14:56:43;6.55;;;2.60;;
9364;SDS011;4722;49.340;9.800;2023-03-12T14:59:19;7.55;;;3.15;;
9364;SDS011;4722;49.340;9.800;2023-03-12T15:01:45;3.40;;;2.08;;
9364;SDS011;4722;49.340;9.800;2023-03-12T15:04:13;4.47;;;2.80;;
9364;SDS011;4722;49.340;9.800;2023-03-12T15:06:53;5.90;;;3.08;;
9364;SDS011;4722;49.340;9.800;2023-03-12T15:09:27;6.80;;;2.33;;
9364;SDS011;4722;49.340;9.800;2023-03-12T15:12:00;5.13;;;2.25;;
9364;SDS011;4722;49.340;9.800;2023-03-12T15:14:27;7.75;;;2.47;;
9364;SDS011;4722;49.340;9.800;2023-03-12T15:16:54;6.55;;;2.60;;
9364;SDS011;4722;49.340;9.800;2023-03-12T15:19:25;7.40;;;2.53;;
9364;SDS011;4722;49.340;9.800;2023-03-12T15:21:52;6.30;;;2.40;;
9364;SDS011;4722;49.340;9.800;2023-03-12T15:24:18;5.40;;;2.47;;
9364;SDS011;4722;49.340;9.800;2023-03-12T15:26:44;11.38;;;2.92;;
9364;SDS011;4722;49.340;9.800;2023-03-12T15:29:18;6.53;;;1.88;;
9364;SDS011;4722;49.340;9.800;2023-03-12T15:31:55;7.43;;;2.35;;
9364;SDS011;4722;49.340;9.800;2023-03-12T15:34:32;10.35;;;2.35;;
9364;SDS011;4722;49.340;9.800;2023-03-12T15:36:59;7.43;;;1.83;;
9364;SDS011;4722;49.340;9.800;2023-03-12T15:39:29;10.10;;;2.53;;
9364;SDS011;4722;49.340;9.800;2023-03-12T15:42:01;4.30;;;2.20;;
9364;SDS011;4722;49.340;9.800;2023-03-12T15:44:35;6.63;;;2.17;;
9364;SDS011;4722;49.340;9.800;2023-03-12T15:47:10;8.80;;;1.70;;
9364;SDS011;4722;49.340;9.800;2023-03-12T15:49:37;5.40;;;2.38;;
9364;SDS011;4722;49.340;9.800;2023-03-12T15:52:05;10.18;;;1.98;;
9364;SDS011;4722;49.340;9.800;2023-03-12T15:57:44;5.43;;;1.90;;
9364;SDS011;4722;49.340;9.800;2023-03-12T16:02:37;5.95;;;2.03;;
9364;SDS011;4722;49.340;9.800;2023-03-12T16:05:04;3.63;;;2.22;;
9364;SDS011;4722;49.340;9.800;2023-03-12T16:07:30;6.82;;;2.97;;
9364;SDS011;4722;49.340;9.800;2023-03-12T16:09:57;4.45;;;1.60;;
9364;SDS011;4722;49.340;9.800;2023-03-12T16:12:23;8.52;;;2.60;;
9364;SDS011;4722;49.340;9.800;2023-03-12T16:14:49;4.95;;;1.70;;
9364;SDS011;4722;49.340;9.800;2023-03-12T16:17:15;4.35;;;1.83;;
9364;SDS011;4722;49.340;9.800;2023-03-12T16:19:41;4.13;;;1.52;;
9364;SDS011;4722;49.340;9.800;2023-03-12T16:22:07;9.23;;;1.98;;
9364;SDS011;4722;49.340;9.800;2023-03-12T16:24:33;4.75;;;3.03;;
9364;SDS011;4722;49.340;9.800;2023-03-12T16:27:00;6.70;;;3.63;;
9364;SDS011;4722;49.340;9.800;2023-03-12T16:29:33;7.15;;;2.65;;
9364;SDS011;4722;49.340;9.800;2023-03-12T16:31:59;6.57;;;3.33;;
9364;SDS011;4722;49.340;9.800;2023-03-12T16:34:26;7.22;;;2.53;;
9364;SDS011;4722;49.340;9.800;2023-03-12T16:36:52;6.68;;;2.25;;
9364;SDS011;4722;49.340;9.800;2023-03-12T16:39:18;4.60;;;1.70;;
9364;SDS011;4722;49.340;9.800;2023-03-12T16:41:44;5.10;;;1.60;;
9364;SDS011;4722;49.340;9.800;2023-03-12T16:44:14;7.13;;;2.10;;
9364;SDS011;4722;49.340;9.800;2023-03-12T16:46:44;7.72;;;2.22;;
9364;SDS011;4722;49.340;9.800;2023-03-12T16:49:12;3.30;;;1.30;;
9364;SDS011;4722;49.340;9.800;2023-03-12T16:51:40;12.00;;;1.33;;
9364;SDS011;4722;49.340;9.800;2023-03-12T16:54:05;5.28;;;1.77;;
9364;SDS011;4722;49.340;9.800;2023-03-12T16:56:31;10.48;;;2.58;;